Time;durP1;ratioP1;P1;durP2;ratioP2;P2;SDS_P1;SDS_P2;PMS_P1;PMS_P2;Temp;Humidity;BMP_temperature;BMP_pressure;BME280_temperature;BME280_humidity;BME280_pressure;Samples;Min_cycle;Max_cycle;Signal;HPM_P1;HPM_P2
2022/01/06 06:00:13;;;;;;;3.77;3.30;;;5.10;97.20;;;;;;1687581;29;20665;-86
2022/01/06 06:01:04;;;;;;;4.40;3.80;;;5.10;97.20;;;;;;1687859;29;20594;-86
2022/01/06 06:01:56;;;;;;;3.17;2.83;;;5.10;97.20;;;;;;1687813;29;20193;-85
2022/01/06 06:02:46;;;;;;;3.75;3.00;;;5.10;97.20;;;;;;1687897;29;20215;-85
2022/01/06 06:03:38;;;;;;;3.80;3.10;;;5.10;97.20;;;;;;1687927;29;20303;-85
2022/01/06 06:04:29;;;;;;;3.25;2.95;;;5.10;97.20;;;;;;1687879;29;20219;-85
2022/01/06 06:05:20;;;;;;;5.10;3.00;;;5.10;97.20;;;;;;1687914;29;20211;-86
2022/01/06 06:06:11;;;;;;;4.63;3.42;;;5.10;97.20;;;;;;1687828;29;20680;-85
2022/01/06 06:07:03;;;;;;;3.50;2.97;;;5.10;97.20;;;;;;1687877;29;20668;-85
2022/01/06 06:07:54;;;;;;;3.85;3.45;;;5.20;97.20;;;;;;1687358;29;20246;-86
2022/01/06 06:08:46;;;;;;;5.33;3.00;;;5.20;97.20;;;;;;1687793;29;20219;-86
2022/01/06 06:09:36;;;;;;;2.95;2.60;;;5.20;97.20;;;;;;1687928;29;20245;-85
2022/01/06 06:10:28;;;;;;;3.13;2.93;;;5.30;97.20;;;;;;1687854;29;20216;-86
2022/01/06 06:11:19;;;;;;;3.67;2.72;;;5.40;97.20;;;;;;1687819;29;20247;-85
2022/01/06 06:12:11;;;;;;;5.03;2.90;;;5.40;97.20;;;;;;1687812;29;20220;-85
2022/01/06 06:13:02;;;;;;;3.85;3.55;;;5.40;97.20;;;;;;1687721;29;20677;-85
2022/01/06 06:13:54;;;;;;;4.50;2.95;;;5.50;97.20;;;;;;1687790;29;20650;-85
2022/01/06 06:14:45;;;;;;;4.38;3.30;;;5.50;97.20;;;;;;1687902;29;20232;-85
2022/01/06 06:15:38;;;;;;;3.40;3.10;;;5.50;97.20;;;;;;1687869;29;20196;-85
2022/01/06 06:16:29;;;;;;;5.22;3.00;;;5.50;97.20;;;;;;1687782;29;20209;-85
2022/01/06 06:17:20;;;;;;;3.33;3.13;;;5.50;97.20;;;;;;1687883;29;20706;-85
2022/01/06 06:18:12;;;;;;;4.82;3.10;;;5.50;97.20;;;;;;1687300;29;20534;-86
2022/01/06 06:19:04;;;;;;;3.30;3.00;;;5.40;97.20;;;;;;1687688;29;20215;-86
2022/01/06 06:19:54;;;;;;;6.15;3.05;;;5.40;97.20;;;;;;1687593;29;20625;-85
2022/01/06 06:20:46;;;;;;;3.40;3.10;;;5.40;97.20;;;;;;1687557;29;20572;-85
2022/01/06 06:21:37;;;;;;;3.20;2.90;;;5.40;97.20;;;;;;1687787;29;20205;-85
2022/01/06 06:22:28;;;;;;;3.10;2.80;;;5.30;97.20;;;;;;1687807;29;20215;-85
2022/01/06 06:23:19;;;;;;;2.97;2.65;;;5.30;97.20;;;;;;1687706;29;20232;-85
2022/01/06 06:24:11;;;;;;;3.60;3.03;;;5.30;97.20;;;;;;1687786;29;20210;-85
2022/01/06 06:25:02;;;;;;;3.85;3.15;;;5.20;97.20;;;;;;1687786;29;20256;-85
2022/01/06 06:25:53;;;;;;;3.00;2.60;;;5.20;97.20;;;;;;1687831;29;20208;-85
2022/01/06 06:26:44;;;;;;;3.50;3.05;;;5.20;97.20;;;;;;1687818;29;20673;-85
2022/01/06 06:27:36;;;;;;;3.80;2.97;;;5.10;97.20;;;;;;1687542;29;20291;-85
2022/01/06 06:28:26;;;;;;;3.88;3.00;;;5.10;97.20;;;;;;1687363;29;20200;-85
2022/01/06 06:29:18;;;;;;;4.47;3.10;;;5.10;97.20;;;;;;1687671;29;20778;-85
2022/01/06 06:30:11;;;;;;;3.58;3.15;;;5.10;97.20;;;;;;1687694;29;20223;-85
2022/01/06 06:31:04;;;;;;;3.53;2.60;;;5.00;97.20;;;;;;1687758;29;20640;-86
2022/01/06 06:31:54;;;;;;;3.97;2.70;;;5.00;97.20;;;;;;1687717;29;20231;-85
2022/01/06 06:32:46;;;;;;;4.50;2.87;;;5.00;97.20;;;;;;1687736;29;20215;-86
2022/01/06 06:33:37;;;;;;;4.75;2.78;;;5.00;97.20;;;;;;1687681;29;20224;-85
2022/01/06 06:34:29;;;;;;;3.70;3.07;;;5.00;97.20;;;;;;1687699;29;20210;-85
2022/01/06 06:35:19;;;;;;;3.63;3.33;;;5.00;97.20;;;;;;1687719;29;20213;-85
2022/01/06 06:36:11;;;;;;;3.40;3.00;;;5.00;97.20;;;;;;1687719;29;20307;-85
2022/01/06 06:37:03;;;;;;;3.65;2.95;;;5.00;97.20;;;;;;1687774;29;20449;-85
2022/01/06 06:37:55;;;;;;;5.72;3.70;;;5.10;97.20;;;;;;1687237;29;20240;-85
2022/01/06 06:38:46;;;;;;;4.75;3.03;;;5.10;97.20;;;;;;1687566;29;20260;-85
2022/01/06 06:39:37;;;;;;;3.70;3.13;;;5.10;97.20;;;;;;1687794;29;20201;-85
2022/01/06 06:40:28;;;;;;;2.85;2.50;;;5.20;97.20;;;;;;1687713;29;20212;-85
2022/01/06 06:41:20;;;;;;;3.53;2.80;;;5.20;97.20;;;;;;1687791;29;20485;-85
2022/01/06 06:42:11;;;;;;;2.60;2.40;;;5.10;97.20;;;;;;1687571;29;20449;-85
2022/01/06 06:43:02;;;;;;;2.70;2.50;;;5.10;97.20;;;;;;1687628;29;20213;-86
2022/01/06 06:43:53;;;;;;;3.03;2.70;;;5.10;97.20;;;;;;1687685;29;20250;-86
2022/01/06 06:44:45;;;;;;;5.43;2.70;;;5.10;97.20;;;;;;1687733;29;20212;-86
2022/01/06 06:45:35;;;;;;;2.45;2.25;;;5.10;97.20;;;;;;1687567;29;20205;-85
2022/01/06 06:46:28;;;;;;;3.53;2.90;;;5.10;97.20;;;;;;1687334;29;20208;-86
2022/01/06 06:47:19;;;;;;;3.03;2.55;;;5.10;97.20;;;;;;1687547;29;20201;-85
2022/01/06 06:48:13;;;;;;;3.10;2.50;;;5.10;97.20;;;;;;1687287;29;20204;-86
2022/01/06 06:49:04;;;;;;;3.25;2.95;;;5.10;97.20;;;;;;1687678;29;20457;-86
2022/01/06 06:49:59;;;;;;;3.15;2.85;;;5.10;97.20;;;;;;1687680;29;20287;-86
2022/01/06 06:50:49;;;;;;;3.13;2.70;;;5.00;97.20;;;;;;1687690;29;20205;-86
2022/01/06 06:51:41;;;;;;;4.10;2.80;;;5.00;97.20;;;;;;1687685;29;20263;-86
2022/01/06 06:52:32;;;;;;;3.10;2.78;;;5.00;97.20;;;;;;1687470;29;20247;-86
2022/01/06 06:53:24;;;;;;;3.33;3.07;;;5.00;97.20;;;;;;1687705;29;20229;-86
2022/01/06 06:54:14;;;;;;;3.60;3.30;;;5.00;97.20;;;;;;1687573;29;20468;-86
2022/01/06 06:55:07;;;;;;;4.83;3.00;;;5.00;97.20;;;;;;1687662;29;20204;-86
2022/01/06 06:55:59;;;;;;;3.10;2.90;;;5.00;97.20;;;;;;1687684;29;20204;-86
2022/01/06 06:56:51;;;;;;;3.92;3.50;;;5.00;97.20;;;;;;1687352;29;20232;-86
2022/01/06 06:57:41;;;;;;;3.13;2.80;;;5.00;97.20;;;;;;1687416;29;20215;-86
2022/01/06 06:58:33;;;;;;;3.50;3.20;;;5.00;97.20;;;;;;1687655;29;20204;-86
2022/01/06 06:59:24;;;;;;;5.07;3.83;;;5.00;97.20;;;;;;1687502;29;20240;-86
2022/01/06 07:00:16;;;;;;;4.00;3.43;;;5.00;97.20;;;;;;1687623;29;20213;-86
2022/01/06 07:01:07;;;;;;;3.90;3.50;;;5.00;97.20;;;;;;1687514;29;20205;-85
2022/01/06 07:02:00;;;;;;;3.80;3.50;;;5.10;97.20;;;;;;1687732;29;20203;-86
2022/01/06 07:02:51;;;;;;;3.95;3.55;;;5.00;97.20;;;;;;1687664;29;20204;-86
2022/01/06 07:03:43;;;;;;;3.73;2.87;;;5.10;97.20;;;;;;1687575;29;20733;-86
2022/01/06 07:04:34;;;;;;;3.53;3.10;;;5.10;97.20;;;;;;1687590;29;20208;-85
2022/01/06 07:05:26;;;;;;;3.20;2.90;;;5.10;97.20;;;;;;1687632;29;20208;-86
2022/01/06 07:06:17;;;;;;;4.03;3.22;;;5.10;97.20;;;;;;1687419;29;20208;-85
2022/01/06 07:07:08;;;;;;;4.67;3.20;;;5.10;97.20;;;;;;1687697;29;20209;-86
2022/01/06 07:07:59;;;;;;;3.15;2.90;;;5.10;97.20;;;;;;1687407;29;20215;-86
2022/01/06 07:08:51;;;;;;;3.73;2.60;;;5.10;97.20;;;;;;1687520;29;20215;-86
2022/01/06 07:09:41;;;;;;;4.07;2.60;;;5.10;97.20;;;;;;1687605;29;20703;-85
2022/01/06 07:10:33;;;;;;;2.80;2.50;;;5.20;97.20;;;;;;1687603;29;20561;-85
2022/01/06 07:11:24;;;;;;;3.00;2.75;;;5.20;97.20;;;;;;1687643;29;20219;-86
2022/01/06 07:12:16;;;;;;;3.50;3.20;;;5.20;97.20;;;;;;1687589;29;20238;-86
2022/01/06 07:13:06;;;;;;;4.72;3.00;;;5.20;97.20;;;;;;1687404;29;20211;-86
2022/01/06 07:13:58;;;;;;;3.27;2.97;;;5.10;97.20;;;;;;1687705;29;20200;-86
2022/01/06 07:14:49;;;;;;;2.90;2.70;;;5.10;97.20;;;;;;1687571;29;20700;-85
2022/01/06 07:15:41;;;;;;;3.40;2.60;;;5.10;97.20;;;;;;1687664;29;20672;-86
2022/01/06 07:16:32;;;;;;;3.00;2.75;;;5.10;97.20;;;;;;1687307;29;20457;-85
2022/01/06 07:17:25;;;;;;;3.03;2.83;;;5.10;97.20;;;;;;1692119;29;20192;-86
2022/01/06 07:18:16;;;;;;;3.92;3.17;;;5.10;97.20;;;;;;1690072;29;20248;-85
2022/01/06 07:19:07;;;;;;;2.60;2.40;;;5.10;97.20;;;;;;1687589;29;20200;-85
2022/01/06 07:19:58;;;;;;;4.40;2.83;;;5.20;97.20;;;;;;1687722;29;20209;-85
2022/01/06 07:20:50;;;;;;;2.70;2.43;;;5.10;97.20;;;;;;1687554;29;20208;-85
2022/01/06 07:21:40;;;;;;;3.20;2.75;;;5.20;97.20;;;;;;1687589;29;20583;-85
2022/01/06 07:22:32;;;;;;;3.17;2.77;;;5.10;97.20;;;;;;1687631;29;20567;-85
2022/01/06 07:23:23;;;;;;;3.63;3.28;;;5.20;97.20;;;;;;1687525;29;21006;-85
2022/01/06 07:24:15;;;;;;;3.73;2.57;;;5.20;97.20;;;;;;1687586;29;20584;-85
2022/01/06 07:25:07;;;;;;;3.88;3.10;;;5.20;97.20;;;;;;1687662;29;20228;-85
2022/01/06 07:25:59;;;;;;;5.03;2.88;;;5.20;97.20;;;;;;1687669;29;20292;-85
2022/01/06 07:26:50;;;;;;;2.65;2.45;;;5.20;97.20;;;;;;1687281;29;20508;-85
2022/01/06 07:27:41;;;;;;;3.30;3.00;;;5.20;97.20;;;;;;1687371;29;20197;-85
2022/01/06 07:28:32;;;;;;;2.90;2.60;;;5.30;97.20;;;;;;1687496;29;20808;-85
2022/01/06 07:29:24;;;;;;;4.57;3.10;;;5.30;97.20;;;;;;1687545;29;20692;-85
2022/01/06 07:30:15;;;;;;;4.72;3.00;;;5.30;97.20;;;;;;1687572;29;20571;-85
2022/01/06 07:31:06;;;;;;;2.83;2.53;;;5.30;97.20;;;;;;1687772;29;20564;-85
2022/01/06 07:31:57;;;;;;;3.10;2.65;;;5.40;97.20;;;;;;1687515;29;20224;-85
2022/01/06 07:32:51;;;;;;;3.33;3.00;;;5.40;97.20;;;;;;1687511;29;20222;-85
2022/01/06 07:33:42;;;;;;;2.88;2.40;;;5.40;97.20;;;;;;1687442;29;20229;-85
2022/01/06 07:34:34;;;;;;;3.97;2.90;;;5.40;97.20;;;;;;1687525;29;20295;-85
2022/01/06 07:35:25;;;;;;;4.65;2.70;;;5.40;97.20;;;;;;1687601;29;20212;-85
2022/01/06 07:36:17;;;;;;;3.17;2.88;;;5.40;97.20;;;;;;1687332;29;20201;-85
2022/01/06 07:37:08;;;;;;;3.20;2.90;;;5.40;97.20;;;;;;1681991;29;20217;-85
2022/01/06 07:37:59;;;;;;;3.60;2.80;;;5.30;97.20;;;;;;1680985;29;20236;-85
2022/01/06 07:38:50;;;;;;;3.78;2.60;;;5.30;97.20;;;;;;1680961;29;20241;-85
2022/01/06 07:39:42;;;;;;;3.07;2.70;;;5.30;97.20;;;;;;1681206;29;20209;-85
2022/01/06 07:40:33;;;;;;;4.28;3.20;;;5.30;97.20;;;;;;1681496;29;20950;-85
2022/01/06 07:41:24;;;;;;;4.20;2.90;;;5.20;97.20;;;;;;1681869;29;20576;-85
2022/01/06 07:42:15;;;;;;;3.78;2.58;;;5.20;97.20;;;;;;1681124;29;20536;-85
2022/01/06 07:43:07;;;;;;;2.97;2.67;;;5.20;97.20;;;;;;1681035;29;20294;-85
2022/01/06 07:43:58;;;;;;;4.60;3.67;;;5.20;97.20;;;;;;1681044;29;20696;-85
2022/01/06 07:44:49;;;;;;;4.00;2.90;;;5.20;97.20;;;;;;1681102;29;20574;-85
2022/01/06 07:45:40;;;;;;;3.63;3.00;;;5.30;97.20;;;;;;1681201;29;20469;-85
2022/01/06 07:46:32;;;;;;;3.10;2.50;;;5.30;97.20;;;;;;1682917;29;20689;-85
2022/01/06 07:47:23;;;;;;;2.63;2.42;;;5.30;97.20;;;;;;1687546;29;20237;-85
2022/01/06 07:48:18;;;;;;;4.23;3.10;;;5.30;97.20;;;;;;1687178;29;20204;-85
2022/01/06 07:49:08;;;;;;;3.90;2.90;;;5.30;97.20;;;;;;1687411;29;20550;-85
2022/01/06 07:50:00;;;;;;;4.10;2.70;;;5.40;97.20;;;;;;1687535;29;20648;-85
2022/01/06 07:50:52;;;;;;;3.05;2.75;;;5.40;97.20;;;;;;1687494;29;20240;-85
2022/01/06 07:51:44;;;;;;;4.30;3.45;;;5.50;97.20;;;;;;1687472;29;20233;-85
2022/01/06 07:52:34;;;;;;;4.90;2.88;;;5.50;97.20;;;;;;1687486;29;20291;-85
2022/01/06 07:53:26;;;;;;;3.40;3.10;;;5.50;97.20;;;;;;1687469;29;20224;-85
2022/01/06 07:54:17;;;;;;;5.28;3.20;;;5.50;97.20;;;;;;1687603;29;20242;-85
2022/01/06 07:55:09;;;;;;;3.27;2.90;;;5.40;97.20;;;;;;1687493;29;20213;-85
2022/01/06 07:55:59;;;;;;;3.15;2.83;;;5.40;97.20;;;;;;1687598;29;20205;-85
2022/01/06 07:56:51;;;;;;;4.53;3.17;;;5.40;97.20;;;;;;1687215;29;20224;-86
2022/01/06 07:57:42;;;;;;;3.10;2.90;;;5.30;97.20;;;;;;1687169;29;20264;-86
2022/01/06 07:58:33;;;;;;;3.40;2.73;;;5.30;97.20;;;;;;1687435;29;20196;-86
2022/01/06 07:59:24;;;;;;;3.28;2.80;;;5.30;97.20;;;;;;1687355;29;20601;-85
2022/01/06 08:00:16;;;;;;;4.40;3.00;;;5.30;97.20;;;;;;1687516;29;20568;-86
2022/01/06 08:01:09;;;;;;;3.20;2.95;;;5.30;97.20;;;;;;1687506;29;20243;-85
2022/01/06 08:02:00;;;;;;;4.00;3.00;;;5.30;97.20;;;;;;1687470;29;20237;-85
2022/01/06 08:02:52;;;;;;;5.33;3.40;;;5.30;97.20;;;;;;1687532;29;20209;-86
2022/01/06 08:03:44;;;;;;;3.42;2.53;;;5.30;97.20;;;;;;1687397;29;20731;-85
2022/01/06 08:04:36;;;;;;;3.95;2.88;;;5.30;97.20;;;;;;1688031;29;20216;-86
2022/01/06 08:05:27;;;;;;;6.88;3.08;;;5.20;97.20;;;;;;1688676;29;20220;-85
2022/01/06 08:06:20;;;;;;;4.35;3.20;;;5.20;97.20;;;;;;1688599;29;20208;-85
2022/01/06 08:07:12;;;;;;;2.90;2.70;;;5.20;97.20;;;;;;1688492;29;20569;-86
2022/01/06 08:08:04;;;;;;;4.60;3.30;;;5.20;97.20;;;;;;1688421;29;20212;-86
2022/01/06 08:08:55;;;;;;;4.47;3.10;;;5.20;97.20;;;;;;1688613;29;20220;-86
2022/01/06 08:09:47;;;;;;;5.00;2.90;;;5.30;97.20;;;;;;1688658;29;20219;-85
2022/01/06 08:10:38;;;;;;;3.10;2.80;;;5.30;97.20;;;;;;1688656;29;20577;-85
2022/01/06 08:11:30;;;;;;;3.50;2.93;;;5.30;97.20;;;;;;1688550;29;20612;-85
2022/01/06 08:12:21;;;;;;;5.32;3.55;;;5.30;97.20;;;;;;1688520;29;20240;-85
2022/01/06 08:13:13;;;;;;;3.33;3.03;;;5.30;97.20;;;;;;1688412;29;20242;-86
2022/01/06 08:14:04;;;;;;;4.45;3.40;;;5.40;97.20;;;;;;1688764;29;20200;-83
2022/01/06 08:14:55;;;;;;;3.70;3.40;;;5.40;97.20;;;;;;1688492;29;20205;-86
2022/01/06 08:15:46;;;;;;;3.35;2.90;;;5.40;97.20;;;;;;1688692;29;20243;-85
2022/01/06 08:16:38;;;;;;;4.27;2.80;;;5.50;97.20;;;;;;1685275;29;20282;-85
2022/01/06 08:17:30;;;;;;;4.13;3.22;;;5.50;97.20;;;;;;1686619;29;20462;-85
2022/01/06 08:18:22;;;;;;;3.33;3.00;;;5.50;97.20;;;;;;1688300;29;20268;-84
2022/01/06 08:19:15;;;;;;;3.25;2.58;;;5.60;97.20;;;;;;1688548;29;20205;-84
2022/01/06 08:20:12;;;;;;;6.30;2.53;;;5.60;97.20;;;;;;1688629;29;20244;-85
2022/01/06 08:21:03;;;;;;;3.10;2.80;;;5.60;97.20;;;;;;1688580;29;20208;-85
2022/01/06 08:21:55;;;;;;;4.35;3.40;;;5.50;97.20;;;;;;1688683;29;20683;-85
2022/01/06 08:22:46;;;;;;;3.00;2.70;;;5.60;97.20;;;;;;1688550;29;20211;-85
2022/01/06 08:23:37;;;;;;;3.73;2.57;;;5.60;97.20;;;;;;1688544;29;20231;-84
2022/01/06 08:24:28;;;;;;;5.40;2.75;;;5.60;97.20;;;;;;1688642;29;20205;-85
2022/01/06 08:25:20;;;;;;;4.97;3.07;;;5.60;97.20;;;;;;1688863;29;20208;-84
2022/01/06 08:26:11;;;;;;;3.15;2.85;;;5.60;97.20;;;;;;1688801;29;20212;-84
2022/01/06 08:27:08;;;;;;;4.05;2.90;;;5.60;97.20;;;;;;1688273;29;20251;-84
2022/01/06 08:28:00;;;;;;;3.90;3.13;;;5.60;97.20;;;;;;1688334;29;20292;-85
2022/01/06 08:28:50;;;;;;;3.75;2.45;;;5.60;97.20;;;;;;1688391;29;20224;-85
2022/01/06 08:29:42;;;;;;;3.30;2.90;;;5.70;97.20;;;;;;1688397;29;20254;-85
2022/01/06 08:30:33;;;;;;;6.28;3.00;;;5.70;97.20;;;;;;1688617;29;20208;-84
2022/01/06 08:31:25;;;;;;;3.80;3.00;;;5.70;97.20;;;;;;1688647;29;20201;-84
2022/01/06 08:32:16;;;;;;;4.70;2.78;;;5.70;97.20;;;;;;1688548;29;20244;-84
2022/01/06 08:33:08;;;;;;;3.20;2.70;;;5.70;97.20;;;;;;1688567;29;20213;-85
2022/01/06 08:33:59;;;;;;;3.33;2.50;;;5.80;97.20;;;;;;1688393;29;20212;-85
2022/01/06 08:34:52;;;;;;;3.20;2.90;;;5.80;97.20;;;;;;1688662;29;20214;-84
2022/01/06 08:35:44;;;;;;;4.70;2.88;;;5.80;97.20;;;;;;1694775;29;20243;-85
2022/01/06 08:36:35;;;;;;;13.25;3.92;;;5.90;97.20;;;;;;1692859;29;20219;-86
2022/01/06 08:37:27;;;;;;;3.43;3.03;;;5.90;97.20;;;;;;1687957;29;20731;-85
2022/01/06 08:38:18;;;;;;;4.72;3.55;;;5.90;97.20;;;;;;1687847;29;20251;-85
2022/01/06 08:39:09;;;;;;;3.75;3.20;;;5.90;97.20;;;;;;1688224;29;20224;-85
2022/01/06 08:40:01;;;;;;;3.70;3.37;;;5.90;97.20;;;;;;1688253;29;20695;-85
2022/01/06 08:40:51;;;;;;;4.00;2.70;;;6.00;97.20;;;;;;1688095;29;20209;-86
2022/01/06 08:41:43;;;;;;;3.20;2.90;;;6.00;97.20;;;;;;1688309;29;20285;-85
2022/01/06 08:42:35;;;;;;;3.83;3.40;;;6.00;97.20;;;;;;1687986;29;20213;-85
2022/01/06 08:43:27;;;;;;;4.55;3.42;;;6.10;97.20;;;;;;1687923;29;20240;-85
2022/01/06 08:44:19;;;;;;;6.57;3.20;;;6.10;97.20;;;;;;1688179;29;20215;-85
2022/01/06 08:45:10;;;;;;;3.10;2.80;;;6.10;97.20;;;;;;1688388;29;20212;-85
2022/01/06 08:46:02;;;;;;;4.50;2.95;;;6.20;97.20;;;;;;1688235;29;20272;-85
2022/01/06 08:46:53;;;;;;;3.72;3.10;;;6.20;97.20;;;;;;1688223;29;20208;-86
2022/01/06 08:47:46;;;;;;;6.68;3.50;;;6.20;97.20;;;;;;1688255;29;20207;-86
2022/01/06 08:48:36;;;;;;;7.57;2.50;;;6.20;97.20;;;;;;1696271;29;20196;-86
2022/01/06 08:49:28;;;;;;;6.10;3.20;;;6.20;97.20;;;;;;1687957;29;20652;-86
2022/01/06 08:50:21;;;;;;;4.70;3.40;;;6.30;97.20;;;;;;1687275;29;20218;-85
2022/01/06 08:51:12;;;;;;;3.75;2.95;;;6.30;97.20;;;;;;1688396;29;20300;-85
2022/01/06 08:52:04;;;;;;;6.30;3.40;;;6.40;97.20;;;;;;1688411;29;20212;-86
2022/01/06 08:52:57;;;;;;;4.45;3.30;;;6.40;97.20;;;;;;1688423;29;20260;-85
2022/01/06 08:53:49;;;;;;;8.70;3.47;;;6.50;97.20;;;;;;1688355;29;20201;-85
2022/01/06 08:54:40;;;;;;;7.55;3.50;;;6.50;97.20;;;;;;1688373;29;20260;-86
2022/01/06 08:55:31;;;;;;;3.40;3.07;;;6.50;97.20;;;;;;1688341;29;20209;-85
2022/01/06 08:56:22;;;;;;;4.32;2.90;;;6.60;97.20;;;;;;1688312;29;20512;-85
2022/01/06 08:57:14;;;;;;;4.30;3.20;;;6.60;97.20;;;;;;1688161;29;20193;-86
2022/01/06 08:58:04;;;;;;;7.55;3.17;;;6.60;97.20;;;;;;1687742;29;20241;-86
2022/01/06 08:58:56;;;;;;;4.60;3.00;;;6.60;97.20;;;;;;1688124;29;20196;-86
2022/01/06 08:59:47;;;;;;;4.72;3.50;;;6.60;97.20;;;;;;1688311;29;20209;-85
2022/01/06 09:00:39;;;;;;;4.80;2.87;;;6.70;97.20;;;;;;1688363;29;20201;-86
2022/01/06 09:01:31;;;;;;;7.90;3.30;;;6.70;97.20;;;;;;1688319;29;20215;-86
2022/01/06 09:02:22;;;;;;;6.40;3.28;;;6.70;97.20;;;;;;1688303;29;20272;-86
2022/01/06 09:03:13;;;;;;;6.53;3.13;;;6.80;97.20;;;;;;1688122;29;20589;-86
2022/01/06 09:04:05;;;;;;;5.50;3.70;;;6.90;97.20;;;;;;1688392;29;20658;-85
2022/01/06 09:04:56;;;;;;;5.03;3.40;;;6.90;97.20;;;;;;1688279;29;20490;-85
2022/01/06 09:05:49;;;;;;;5.90;3.75;;;7.00;97.20;;;;;;1688485;29;20228;-84
2022/01/06 09:06:40;;;;;;;5.38;2.92;;;7.00;97.20;;;;;;1688386;29;20208;-84
2022/01/06 09:07:32;;;;;;;5.70;3.60;;;7.10;97.20;;;;;;1688443;29;20200;-84
2022/01/06 09:08:26;;;;;;;4.65;3.00;;;7.20;97.20;;;;;;1688496;29;20461;-84
2022/01/06 09:09:18;;;;;;;4.00;3.03;;;7.20;97.20;;;;;;1688764;29;20296;-84
2022/01/06 09:10:10;;;;;;;4.72;3.60;;;7.30;97.20;;;;;;1688804;29;20208;-84
2022/01/06 09:11:02;;;;;;;5.72;3.75;;;7.40;97.20;;;;;;1688673;29;20212;-84
2022/01/06 09:11:52;;;;;;;5.47;3.67;;;7.50;97.20;;;;;;1694001;29;20211;-84
2022/01/06 09:12:45;;;;;;;4.57;3.20;;;7.50;97.20;;;;;;1694890;29;20207;-84
2022/01/06 09:13:36;;;;;;;6.40;3.60;;;7.50;97.20;;;;;;1694846;29;20267;-84
2022/01/06 09:14:28;;;;;;;6.30;3.50;;;7.60;97.20;;;;;;1695013;29;20210;-84
2022/01/06 09:15:19;;;;;;;5.53;2.97;;;7.60;97.20;;;;;;1694923;29;20232;-84
2022/01/06 09:16:10;;;;;;;6.93;3.97;;;7.60;97.20;;;;;;1694917;29;20214;-84
2022/01/06 09:17:01;;;;;;;5.03;3.13;;;7.60;97.20;;;;;;1691191;29;20200;-84
2022/01/06 09:17:53;;;;;;;6.07;3.23;;;7.60;97.20;;;;;;1688436;29;20208;-84
2022/01/06 09:18:44;;;;;;;8.02;3.60;;;7.60;97.20;;;;;;1688418;29;20457;-85
2022/01/06 09:19:36;;;;;;;4.20;2.93;;;7.70;97.20;;;;;;1688712;29;20209;-85
2022/01/06 09:20:26;;;;;;;5.20;3.25;;;7.70;97.20;;;;;;1688661;29;20216;-84
2022/01/06 09:21:22;;;;;;;5.90;3.40;;;7.70;97.20;;;;;;1688657;29;20209;-84
2022/01/06 09:22:13;;;;;;;7.15;3.65;;;7.80;97.20;;;;;;1688854;29;20548;-87
2022/01/06 09:23:05;;;;;;;6.33;3.30;;;7.80;97.20;;;;;;1688732;29;20212;-84
2022/01/06 09:23:59;;;;;;;6.07;2.60;;;7.90;97.20;;;;;;1688708;29;20376;-84
2022/01/06 09:24:51;;;;;;;6.03;3.08;;;7.90;97.20;;;;;;1688559;29;20264;-85
2022/01/06 09:25:43;;;;;;;4.95;2.97;;;8.00;97.20;;;;;;1688647;29;20582;-84
2022/01/06 09:26:34;;;;;;;6.80;3.22;;;8.00;97.20;;;;;;1688597;29;20213;-85
2022/01/06 09:27:28;;;;;;;5.75;3.67;;;8.00;97.20;;;;;;1688147;29;20193;-83
2022/01/06 09:28:18;;;;;;;6.45;3.88;;;8.10;97.20;;;;;;1688284;29;20267;-84
2022/01/06 09:29:13;;;;;;;5.47;3.97;;;8.10;97.20;;;;;;1688514;29;20267;-84
2022/01/06 09:30:05;;;;;;;8.55;4.80;;;8.20;97.20;;;;;;1688534;29;20239;-84
2022/01/06 09:30:57;;;;;;;7.70;3.60;;;8.20;97.20;;;;;;1689053;29;20208;-82
2022/01/06 09:31:48;;;;;;;7.05;3.97;;;8.30;97.20;;;;;;1688181;29;20599;-85
2022/01/06 09:32:41;;;;;;;6.53;3.57;;;8.30;97.20;;;;;;1688140;29;20646;-86
2022/01/06 09:33:31;;;;;;;5.10;3.05;;;8.40;97.20;;;;;;1687948;29;20845;-85
2022/01/06 09:34:23;;;;;;;6.80;3.20;;;8.40;97.20;;;;;;1688162;29;20224;-85
2022/01/06 09:35:15;;;;;;;4.80;2.67;;;8.40;97.20;;;;;;1688152;29;20250;-84
2022/01/06 09:36:07;;;;;;;5.30;3.15;;;8.40;97.20;;;;;;1688107;29;20265;-85
2022/01/06 09:36:59;;;;;;;6.32;2.80;;;8.40;97.20;;;;;;1687761;29;20211;-85
2022/01/06 09:37:51;;;;;;;5.40;2.45;;;8.40;97.20;;;;;;1687903;29;20240;-85
2022/01/06 09:38:45;;;;;;;5.00;2.75;;;8.40;97.20;;;;;;1687680;29;20216;-85
2022/01/06 09:39:37;;;;;;;4.97;2.70;;;8.40;97.20;;;;;;1688179;29;20667;-85
2022/01/06 09:40:28;;;;;;;5.18;3.08;;;8.40;97.20;;;;;;1688118;29;20219;-85
2022/01/06 09:41:20;;;;;;;6.75;3.30;;;8.40;97.20;;;;;;1688093;29;20661;-85
2022/01/06 09:42:12;;;;;;;7.95;3.10;;;8.40;97.20;;;;;;1687990;29;20208;-85
2022/01/06 09:43:03;;;;;;;7.75;3.03;;;8.40;97.20;;;;;;1688006;29;20209;-85
2022/01/06 09:43:55;;;;;;;5.57;2.90;;;8.30;97.20;;;;;;1688112;29;20243;-86
2022/01/06 09:44:49;;;;;;;5.97;2.90;;;8.30;97.20;;;;;;1688010;29;20215;-85
2022/01/06 09:45:41;;;;;;;7.45;3.33;;;8.30;97.20;;;;;;1688091;29;20219;-86
2022/01/06 09:46:33;;;;;;;7.22;3.17;;;8.20;97.20;;;;;;1687942;29;20570;-85
2022/01/06 09:47:27;;;;;;;5.70;2.92;;;8.20;97.20;;;;;;1687789;29;20200;-85
2022/01/06 09:48:20;;;;;;;5.40;2.90;;;8.20;97.20;;;;;;1687591;29;20213;-85
2022/01/06 09:49:12;;;;;;;3.53;2.72;;;8.20;97.20;;;;;;1687824;29;20209;-86
2022/01/06 09:50:06;;;;;;;5.32;2.85;;;8.30;97.20;;;;;;1687845;29;20608;-85
2022/01/06 09:50:57;;;;;;;4.97;2.53;;;8.30;97.20;;;;;;1687381;29;20283;-85
2022/01/06 09:51:49;;;;;;;7.03;3.30;;;8.30;97.20;;;;;;1687904;29;20209;-85
2022/01/06 09:52:42;;;;;;;3.45;2.65;;;8.20;97.20;;;;;;1688045;29;20219;-85
2022/01/06 09:53:33;;;;;;;5.90;3.25;;;8.20;97.20;;;;;;1687850;29;20243;-86
2022/01/06 09:54:24;;;;;;;7.40;3.80;;;8.10;97.20;;;;;;1687977;29;20201;-85
2022/01/06 09:55:15;;;;;;;5.32;2.88;;;8.10;97.20;;;;;;1687717;29;20680;-85
2022/01/06 09:56:07;;;;;;;5.37;2.87;;;8.00;97.20;;;;;;1688252;29;20657;-86
2022/01/06 09:56:58;;;;;;;7.85;3.10;;;8.00;97.20;;;;;;1687165;29;20215;-85
2022/01/06 09:57:57;;;;;;;4.03;2.53;;;8.00;97.20;;;;;;1687490;29;20205;-85
2022/01/06 09:58:48;;;;;;;6.70;3.50;;;8.00;97.20;;;;;;1687167;29;20555;-85
2022/01/06 09:59:41;;;;;;;5.60;3.22;;;8.00;97.20;;;;;;1687766;29;20287;-86
2022/01/06 10:00:35;;;;;;;6.88;3.05;;;8.00;97.20;;;;;;1687222;29;20217;-85
2022/01/06 10:01:27;;;;;;;5.72;2.90;;;8.00;97.20;;;;;;1687804;29;20205;-86
2022/01/06 10:02:19;;;;;;;5.07;2.78;;;8.00;97.20;;;;;;1687341;29;20216;-86
2022/01/06 10:03:11;;;;;;;5.38;2.80;;;8.10;97.20;;;;;;1687424;29;20211;-86
2022/01/06 10:04:03;;;;;;;5.82;2.67;;;8.10;97.20;;;;;;1687334;29;20673;-85
2022/01/06 10:04:59;;;;;;;3.97;2.60;;;8.10;97.20;;;;;;1687264;29;20699;-84
2022/01/06 10:05:51;;;;;;;6.50;2.50;;;8.20;97.20;;;;;;1687247;29;20299;-84
2022/01/06 10:06:42;;;;;;;6.13;2.50;;;8.20;97.20;;;;;;1687116;29;20223;-84
2022/01/06 10:07:37;;;;;;;6.80;2.90;;;8.20;97.20;;;;;;1686908;29;20219;-85
2022/01/06 10:08:30;;;;;;;3.10;2.67;;;8.20;97.20;;;;;;1686685;29;20217;-84
2022/01/06 10:09:24;;;;;;;7.60;3.05;;;8.30;97.20;;;;;;1685096;29;20211;-85
2022/01/06 10:10:16;;;;;;;6.72;3.10;;;8.20;97.20;;;;;;1680936;29;20325;-85
2022/01/06 10:11:09;;;;;;;8.25;4.05;;;8.20;97.20;;;;;;1680307;29;20211;-85
2022/01/06 10:12:06;;;;;;;7.28;3.70;;;8.20;97.20;;;;;;1680312;29;20209;-84
2022/01/06 10:12:58;;;;;;;7.53;4.45;;;8.20;97.20;;;;;;1680947;29;20293;-84
2022/01/06 10:14:04;;;;;;;4.65;3.25;;;8.10;97.20;;;;;;1681312;29;20225;-85
2022/01/06 10:14:56;;;;;;;6.43;2.97;;;8.10;97.20;;;;;;1681655;29;20213;-85
2022/01/06 10:15:47;;;;;;;5.50;2.45;;;8.00;97.20;;;;;;1687149;29;20575;-85
2022/01/06 10:16:40;;;;;;;6.03;2.70;;;7.90;97.20;;;;;;1687860;29;20288;-86
2022/01/06 10:17:33;;;;;;;6.47;2.65;;;7.90;97.20;;;;;;1687780;29;20208;-86
2022/01/06 10:18:25;;;;;;;8.43;3.55;;;7.80;97.20;;;;;;1690382;29;20211;-85
2022/01/06 10:19:16;;;;;;;7.30;2.90;;;7.80;97.20;;;;;;1692839;29;20205;-86
2022/01/06 10:20:13;;;;;;;5.10;2.08;;;7.80;97.20;;;;;;1687790;29;20212;-86
2022/01/06 10:21:12;;;;;;;7.82;2.92;;;7.80;97.20;;;;;;1687856;29;20204;-85
2022/01/06 10:22:11;;;;;;;4.90;2.72;;;7.80;97.20;;;;;;1687901;29;20739;-87
2022/01/06 10:23:09;;;;;;;7.55;3.15;;;7.80;97.20;;;;;;1687884;29;20263;-86
2022/01/06 10:24:08;;;;;;;6.72;2.72;;;7.80;97.20;;;;;;1687933;29;20205;-86
2022/01/06 10:25:08;;;;;;;7.95;3.03;;;7.90;97.20;;;;;;1687917;29;20219;-87
2022/01/06 10:25:58;;;;;;;4.93;2.80;;;7.90;97.20;;;;;;1681421;29;20213;-85
2022/01/06 10:26:56;;;;;;;9.13;3.13;;;7.90;97.20;;;;;;1681363;29;20213;-88
2022/01/06 10:27:49;;;;;;;8.13;3.33;;;7.90;97.20;;;;;;1680350;29;20209;-88
2022/01/06 10:28:40;;;;;;;6.90;2.97;;;7.90;97.20;;;;;;1681307;29;20205;-88
2022/01/06 10:29:34;;;;;;;6.63;3.00;;;7.90;97.20;;;;;;1681406;29;20210;-87
2022/01/06 10:30:29;;;;;;;8.57;2.90;;;7.90;97.20;;;;;;1681228;29;20212;-87
2022/01/06 10:31:24;;;;;;;5.93;2.75;;;7.90;97.20;;;;;;1681356;29;20208;-88
2022/01/06 10:32:18;;;;;;;8.50;3.50;;;7.90;97.20;;;;;;1681493;29;20679;-88
2022/01/06 10:33:08;;;;;;;5.97;2.40;;;7.90;97.20;;;;;;1681201;29;20220;-88
2022/01/06 10:34:06;;;;;;;7.80;2.73;;;7.90;97.20;;;;;;1681316;29;20516;-88